sensor_id;sensor_type;location;lat;lon;timestamp;temperature;humidity
5200;DHT22;2619;47.868;11.892;2022-09-09T00:02:40;12.40;99.90
5200;DHT22;2619;47.868;11.892;2022-09-09T00:05:22;12.40;99.90
5200;DHT22;2619;47.868;11.892;2022-09-09T00:07:55;12.40;99.90
5200;DHT22;2619;47.868;11.892;2022-09-09T00:15:34;12.30;99.90
5200;DHT22;2619;47.868;11.892;2022-09-09T00:18:11;12.30;99.90
5200;DHT22;2619;47.868;11.892;2022-09-09T00:20:44;12.40;99.90
5200;DHT22;2619;47.868;11.892;2022-09-09T00:26:12;12.60;99.90
5200;DHT22;2619;47.868;11.892;2022-09-09T00:28:55;12.70;99.90
5200;DHT22;2619;47.868;11.892;2022-09-09T00:31:26;12.80;99.90
5200;DHT22;2619;47.868;11.892;2022-09-09T00:33:53;13.00;99.90
5200;DHT22;2619;47.868;11.892;2022-09-09T00:36:23;13.00;99.90
5200;DHT22;2619;47.868;11.892;2022-09-09T00:39:01;13.10;99.90
5200;DHT22;2619;47.868;11.892;2022-09-09T00:42:02;13.20;99.90
5200;DHT22;2619;47.868;11.892;2022-09-09T00:44:32;13.30;99.90
5200;DHT22;2619;47.868;11.892;2022-09-09T00:47:17;13.40;99.90
5200;DHT22;2619;47.868;11.892;2022-09-09T00:50:00;13.40;99.90
5200;DHT22;2619;47.868;11.892;2022-09-09T00:58:18;13.50;99.90
5200;DHT22;2619;47.868;11.892;2022-09-09T01:00:52;13.60;99.90
5200;DHT22;2619;47.868;11.892;2022-09-09T01:03:26;13.60;99.90
5200;DHT22;2619;47.868;11.892;2022-09-09T01:11:21;13.70;99.90
5200;DHT22;2619;47.868;11.892;2022-09-09T01:13:52;13.70;99.90
5200;DHT22;2619;47.868;11.892;2022-09-09T01:16:19;13.80;99.90
5200;DHT22;2619;47.868;11.892;2022-09-09T01:18:51;13.80;99.90
5200;DHT22;2619;47.868;11.892;2022-09-09T01:26:41;13.70;99.90
5200;DHT22;2619;47.868;11.892;2022-09-09T01:29:10;13.70;99.90
5200;DHT22;2619;47.868;11.892;2022-09-09T01:31:40;13.80;99.90
5200;DHT22;2619;47.868;11.892;2022-09-09T01:34:14;13.90;99.90
5200;DHT22;2619;47.868;11.892;2022-09-09T01:36:57;13.90;99.90
5200;DHT22;2619;47.868;11.892;2022-09-09T01:39:24;13.80;99.90
5200;DHT22;2619;47.868;11.892;2022-09-09T01:41:50;13.80;99.90
5200;DHT22;2619;47.868;11.892;2022-09-09T01:44:16;13.90;99.90
5200;DHT22;2619;47.868;11.892;2022-09-09T01:46:43;13.90;99.90
5200;DHT22;2619;47.868;11.892;2022-09-09T01:49:09;14.00;99.90
5200;DHT22;2619;47.868;11.892;2022-09-09T01:51:36;14.10;99.90
5200;DHT22;2619;47.868;11.892;2022-09-09T01:54:03;14.20;99.90
5200;DHT22;2619;47.868;11.892;2022-09-09T01:59:17;14.30;99.90
5200;DHT22;2619;47.868;11.892;2022-09-09T02:04:41;14.30;99.90
5200;DHT22;2619;47.868;11.892;2022-09-09T02:12:38;14.30;99.90
5200;DHT22;2619;47.868;11.892;2022-09-09T02:15:16;14.30;99.90
5200;DHT22;2619;47.868;11.892;2022-09-09T02:17:45;14.30;99.90
5200;DHT22;2619;47.868;11.892;2022-09-09T02:20:13;14.40;99.90
5200;DHT22;2619;47.868;11.892;2022-09-09T02:22:43;14.40;99.90
5200;DHT22;2619;47.868;11.892;2022-09-09T02:25:12;14.40;99.90
5200;DHT22;2619;47.868;11.892;2022-09-09T02:27:41;14.40;99.90
5200;DHT22;2619;47.868;11.892;2022-09-09T02:30:09;14.40;99.90
5200;DHT22;2619;47.868;11.892;2022-09-09T02:32:36;14.40;99.90
5200;DHT22;2619;47.868;11.892;2022-09-09T02:35:10;14.50;99.90
5200;DHT22;2619;47.868;11.892;2022-09-09T02:37:38;14.40;99.90
5200;DHT22;2619;47.868;11.892;2022-09-09T02:40:06;14.50;99.90
5200;DHT22;2619;47.868;11.892;2022-09-09T02:42:45;14.50;99.90
5200;DHT22;2619;47.868;11.892;2022-09-09T02:45:15;14.50;99.90
5200;DHT22;2619;47.868;11.892;2022-09-09T02:50:55;14.50;99.90
5200;DHT22;2619;47.868;11.892;2022-09-09T02:53:35;14.50;99.90
5200;DHT22;2619;47.868;11.892;2022-09-09T02:56:08;14.40;99.90
5200;DHT22;2619;47.868;11.892;2022-09-09T02:58:35;14.50;99.90
5200;DHT22;2619;47.868;11.892;2022-09-09T03:01:01;14.50;99.90
5200;DHT22;2619;47.868;11.892;2022-09-09T03:03:28;14.40;99.90
5200;DHT22;2619;47.868;11.892;2022-09-09T03:05:54;14.50;99.90
5200;DHT22;2619;47.868;11.892;2022-09-09T03:08:20;14.50;99.90
5200;DHT22;2619;47.868;11.892;2022-09-09T03:10:45;14.50;99.90
5200;DHT22;2619;47.868;11.892;2022-09-09T03:13:11;14.50;99.90
5200;DHT22;2619;47.868;11.892;2022-09-09T03:15:38;14.60;99.90
5200;DHT22;2619;47.868;11.892;2022-09-09T03:18:03;14.50;99.90
5200;DHT22;2619;47.868;11.892;2022-09-09T03:20:30;14.60;99.90
5200;DHT22;2619;47.868;11.892;2022-09-09T03:22:56;14.50;99.90
5200;DHT22;2619;47.868;11.892;2022-09-09T03:25:22;14.40;99.90
5200;DHT22;2619;47.868;11.892;2022-09-09T03:27:52;14.40;99.90
5200;DHT22;2619;47.868;11.892;2022-09-09T03:30:23;14.40;99.90
5200;DHT22;2619;47.868;11.892;2022-09-09T03:32:49;14.20;99.90
5200;DHT22;2619;47.868;11.892;2022-09-09T03:35:15;14.10;99.90
5200;DHT22;2619;47.868;11.892;2022-09-09T03:37:41;14.10;99.90
5200;DHT22;2619;47.868;11.892;2022-09-09T03:40:07;14.10;99.90
5200;DHT22;2619;47.868;11.892;2022-09-09T03:42:35;14.00;99.90
5200;DHT22;2619;47.868;11.892;2022-09-09T03:45:05;14.10;99.90
5200;DHT22;2619;47.868;11.892;2022-09-09T03:47:31;14.00;99.90
5200;DHT22;2619;47.868;11.892;2022-09-09T03:49:57;13.90;99.90
5200;DHT22;2619;47.868;11.892;2022-09-09T03:52:22;13.80;99.90
5200;DHT22;2619;47.868;11.892;2022-09-09T03:54:52;13.80;99.90
5200;DHT22;2619;47.868;11.892;2022-09-09T03:57:18;13.70;99.90
5200;DHT22;2619;47.868;11.892;2022-09-09T03:59:44;13.70;99.90
5200;DHT22;2619;47.868;11.892;2022-09-09T04:02:10;13.70;99.90
5200;DHT22;2619;47.868;11.892;2022-09-09T04:04:35;13.60;99.90
5200;DHT22;2619;47.868;11.892;2022-09-09T04:07:01;13.60;99.90
5200;DHT22;2619;47.868;11.892;2022-09-09T04:09:26;13.60;99.90
5200;DHT22;2619;47.868;11.892;2022-09-09T04:11:52;13.50;99.90
5200;DHT22;2619;47.868;11.892;2022-09-09T04:14:19;13.40;99.90
5200;DHT22;2619;47.868;11.892;2022-09-09T04:16:45;13.50;99.90
5200;DHT22;2619;47.868;11.892;2022-09-09T04:19:11;13.40;99.90
5200;DHT22;2619;47.868;11.892;2022-09-09T04:21:39;13.40;99.90
5200;DHT22;2619;47.868;11.892;2022-09-09T04:24:06;13.40;99.90
5200;DHT22;2619;47.868;11.892;2022-09-09T04:26:33;13.30;99.90
5200;DHT22;2619;47.868;11.892;2022-09-09T04:28:58;13.40;99.90
5200;DHT22;2619;47.868;11.892;2022-09-09T04:31:24;13.40;99.90
5200;DHT22;2619;47.868;11.892;2022-09-09T04:33:50;13.30;99.90
5200;DHT22;2619;47.868;11.892;2022-09-09T04:36:16;13.30;99.90
5200;DHT22;2619;47.868;11.892;2022-09-09T04:38:42;13.30;99.90
5200;DHT22;2619;47.868;11.892;2022-09-09T04:41:09;13.30;99.90
5200;DHT22;2619;47.868;11.892;2022-09-09T04:43:36;13.40;99.90
5200;DHT22;2619;47.868;11.892;2022-09-09T04:46:03;13.40;99.90
5200;DHT22;2619;47.868;11.892;2022-09-09T04:48:28;13.50;99.90
5200;DHT22;2619;47.868;11.892;2022-09-09T04:50:59;13.40;99.90
5200;DHT22;2619;47.868;11.892;2022-09-09T04:53:25;13.40;99.90
5200;DHT22;2619;47.868;11.892;2022-09-09T04:56:00;13.40;99.90
5200;DHT22;2619;47.868;11.892;2022-09-09T04:58:26;13.50;99.90
5200;DHT22;2619;47.868;11.892;2022-09-09T05:00:52;13.60;99.90
5200;DHT22;2619;47.868;11.892;2022-09-09T05:03:17;13.60;99.90
5200;DHT22;2619;47.868;11.892;2022-09-09T05:05:44;13.70;99.90
5200;DHT22;2619;47.868;11.892;2022-09-09T05:08:10;13.70;99.90
5200;DHT22;2619;47.868;11.892;2022-09-09T05:10:38;13.70;99.90
5200;DHT22;2619;47.868;11.892;2022-09-09T05:13:04;13.70;99.90
5200;DHT22;2619;47.868;11.892;2022-09-09T05:15:30;13.80;99.90
5200;DHT22;2619;47.868;11.892;2022-09-09T05:17:58;13.70;99.90
5200;DHT22;2619;47.868;11.892;2022-09-09T05:20:24;13.70;99.90
5200;DHT22;2619;47.868;11.892;2022-09-09T05:22:53;13.90;99.90
5200;DHT22;2619;47.868;11.892;2022-09-09T05:25:19;13.90;99.90
5200;DHT22;2619;47.868;11.892;2022-09-09T05:27:45;14.00;99.90
5200;DHT22;2619;47.868;11.892;2022-09-09T05:30:10;14.00;99.90
5200;DHT22;2619;47.868;11.892;2022-09-09T05:32:36;14.10;99.90
5200;DHT22;2619;47.868;11.892;2022-09-09T05:35:02;14.20;99.90
5200;DHT22;2619;47.868;11.892;2022-09-09T05:37:28;14.30;99.90
5200;DHT22;2619;47.868;11.892;2022-09-09T05:39:55;14.30;99.90
5200;DHT22;2619;47.868;11.892;2022-09-09T05:42:21;14.30;99.90
5200;DHT22;2619;47.868;11.892;2022-09-09T05:44:46;14.40;99.90
5200;DHT22;2619;47.868;11.892;2022-09-09T05:47:12;14.50;99.90
5200;DHT22;2619;47.868;11.892;2022-09-09T05:49:37;14.60;99.90
5200;DHT22;2619;47.868;11.892;2022-09-09T05:52:03;14.80;99.90
5200;DHT22;2619;47.868;11.892;2022-09-09T05:54:29;14.90;99.90
5200;DHT22;2619;47.868;11.892;2022-09-09T05:56:55;14.90;99.90
5200;DHT22;2619;47.868;11.892;2022-09-09T05:59:21;14.80;99.90
5200;DHT22;2619;47.868;11.892;2022-09-09T06:01:48;14.80;99.90
5200;DHT22;2619;47.868;11.892;2022-09-09T06:04:14;14.80;99.90
5200;DHT22;2619;47.868;11.892;2022-09-09T06:06:39;14.80;99.90
5200;DHT22;2619;47.868;11.892;2022-09-09T06:09:08;14.80;99.90
5200;DHT22;2619;47.868;11.892;2022-09-09T06:11:36;14.70;99.90
5200;DHT22;2619;47.868;11.892;2022-09-09T06:14:02;14.80;99.90
5200;DHT22;2619;47.868;11.892;2022-09-09T06:16:29;14.80;99.90
5200;DHT22;2619;47.868;11.892;2022-09-09T06:18:56;14.80;99.90
5200;DHT22;2619;47.868;11.892;2022-09-09T06:21:24;14.80;99.90
5200;DHT22;2619;47.868;11.892;2022-09-09T06:23:50;14.70;99.90
5200;DHT22;2619;47.868;11.892;2022-09-09T06:26:23;14.70;99.90
5200;DHT22;2619;47.868;11.892;2022-09-09T06:28:52;14.70;99.90
5200;DHT22;2619;47.868;11.892;2022-09-09T06:31:20;14.60;99.90
5200;DHT22;2619;47.868;11.892;2022-09-09T06:33:48;14.60;99.90
5200;DHT22;2619;47.868;11.892;2022-09-09T06:38:41;14.40;99.90
5200;DHT22;2619;47.868;11.892;2022-09-09T06:41:09;14.40;99.90
5200;DHT22;2619;47.868;11.892;2022-09-09T06:43:35;14.40;99.90
5200;DHT22;2619;47.868;11.892;2022-09-09T06:46:07;14.40;99.90
5200;DHT22;2619;47.868;11.892;2022-09-09T06:48:34;14.50;99.90
5200;DHT22;2619;47.868;11.892;2022-09-09T06:51:01;14.50;99.90
5200;DHT22;2619;47.868;11.892;2022-09-09T06:53:27;14.50;99.90
5200;DHT22;2619;47.868;11.892;2022-09-09T06:55:53;14.50;99.90
5200;DHT22;2619;47.868;11.892;2022-09-09T06:58:20;14.60;99.90
5200;DHT22;2619;47.868;11.892;2022-09-09T07:00:47;14.60;99.90
5200;DHT22;2619;47.868;11.892;2022-09-09T07:03:13;14.50;99.90
5200;DHT22;2619;47.868;11.892;2022-09-09T07:05:38;14.50;99.90
5200;DHT22;2619;47.868;11.892;2022-09-09T07:08:04;14.60;99.90
5200;DHT22;2619;47.868;11.892;2022-09-09T07:10:31;14.60;99.90
5200;DHT22;2619;47.868;11.892;2022-09-09T07:12:56;14.50;99.90
5200;DHT22;2619;47.868;11.892;2022-09-09T07:15:22;14.50;99.90
5200;DHT22;2619;47.868;11.892;2022-09-09T07:17:48;14.40;99.90
5200;DHT22;2619;47.868;11.892;2022-09-09T07:20:14;14.40;99.90
5200;DHT22;2619;47.868;11.892;2022-09-09T07:22:40;14.50;99.90
5200;DHT22;2619;47.868;11.892;2022-09-09T07:25:07;14.40;99.90
5200;DHT22;2619;47.868;11.892;2022-09-09T07:27:33;14.40;99.90
5200;DHT22;2619;47.868;11.892;2022-09-09T07:29:58;14.50;99.90
5200;DHT22;2619;47.868;11.892;2022-09-09T07:32:24;14.50;99.90
5200;DHT22;2619;47.868;11.892;2022-09-09T07:34:51;14.60;99.90
5200;DHT22;2619;47.868;11.892;2022-09-09T07:37:16;14.70;99.90
5200;DHT22;2619;47.868;11.892;2022-09-09T07:39:43;14.70;99.90
5200;DHT22;2619;47.868;11.892;2022-09-09T07:42:09;14.90;99.90
5200;DHT22;2619;47.868;11.892;2022-09-09T07:44:36;15.10;99.90
5200;DHT22;2619;47.868;11.892;2022-09-09T07:47:04;15.20;99.90
5200;DHT22;2619;47.868;11.892;2022-09-09T07:49:30;15.30;99.90
5200;DHT22;2619;47.868;11.892;2022-09-09T07:51:57;15.40;99.90
5200;DHT22;2619;47.868;11.892;2022-09-09T07:54:22;15.40;99.90
5200;DHT22;2619;47.868;11.892;2022-09-09T07:56:49;15.40;99.90
5200;DHT22;2619;47.868;11.892;2022-09-09T07:59:15;15.50;99.90
5200;DHT22;2619;47.868;11.892;2022-09-09T08:01:46;15.60;99.90
5200;DHT22;2619;47.868;11.892;2022-09-09T08:04:14;15.70;99.90
5200;DHT22;2619;47.868;11.892;2022-09-09T08:07:16;15.90;99.90
5200;DHT22;2619;47.868;11.892;2022-09-09T08:09:35;16.00;99.90
5200;DHT22;2619;47.868;11.892;2022-09-09T08:12:01;15.90;99.90
5200;DHT22;2619;47.868;11.892;2022-09-09T08:14:27;15.80;99.90
5200;DHT22;2619;47.868;11.892;2022-09-09T08:16:53;15.70;99.90
5200;DHT22;2619;47.868;11.892;2022-09-09T08:19:19;15.70;99.90
5200;DHT22;2619;47.868;11.892;2022-09-09T08:21:45;15.70;99.90
5200;DHT22;2619;47.868;11.892;2022-09-09T08:24:12;15.60;99.90
5200;DHT22;2619;47.868;11.892;2022-09-09T08:26:44;15.50;99.90
5200;DHT22;2619;47.868;11.892;2022-09-09T08:29:12;15.50;99.90
5200;DHT22;2619;47.868;11.892;2022-09-09T08:34:09;15.50;99.90
5200;DHT22;2619;47.868;11.892;2022-09-09T08:36:38;15.50;99.90
5200;DHT22;2619;47.868;11.892;2022-09-09T08:39:06;15.50;99.90
5200;DHT22;2619;47.868;11.892;2022-09-09T08:42:00;15.50;99.90
5200;DHT22;2619;47.868;11.892;2022-09-09T08:47:24;15.30;99.90
5200;DHT22;2619;47.868;11.892;2022-09-09T08:52:41;15.50;99.90
5200;DHT22;2619;47.868;11.892;2022-09-09T08:58:14;15.60;99.90
5200;DHT22;2619;47.868;11.892;2022-09-09T09:03:57;15.90;99.90
5200;DHT22;2619;47.868;11.892;2022-09-09T09:11:24;16.40;99.90
5200;DHT22;2619;47.868;11.892;2022-09-09T09:13:58;16.60;99.90
5200;DHT22;2619;47.868;11.892;2022-09-09T09:18:57;16.40;99.90
5200;DHT22;2619;47.868;11.892;2022-09-09T09:21:52;16.20;99.90
5200;DHT22;2619;47.868;11.892;2022-09-09T09:24:34;16.20;99.90
5200;DHT22;2619;47.868;11.892;2022-09-09T09:29:59;16.10;99.90
5200;DHT22;2619;47.868;11.892;2022-09-09T09:32:29;16.10;99.90
5200;DHT22;2619;47.868;11.892;2022-09-09T09:34:58;15.90;99.90
5200;DHT22;2619;47.868;11.892;2022-09-09T09:37:34;15.70;99.90
5200;DHT22;2619;47.868;11.892;2022-09-09T09:40:14;15.60;99.90
5200;DHT22;2619;47.868;11.892;2022-09-09T09:43:02;15.50;99.90
5200;DHT22;2619;47.868;11.892;2022-09-09T09:50:25;15.20;99.90
5200;DHT22;2619;47.868;11.892;2022-09-09T09:52:59;15.10;99.90
5200;DHT22;2619;47.868;11.892;2022-09-09T09:55:25;15.00;99.90
5200;DHT22;2619;47.868;11.892;2022-09-09T09:57:52;14.90;99.90
5200;DHT22;2619;47.868;11.892;2022-09-09T10:00:19;14.80;99.90
5200;DHT22;2619;47.868;11.892;2022-09-09T10:02:46;14.90;99.90
5200;DHT22;2619;47.868;11.892;2022-09-09T10:07:43;14.80;99.90
5200;DHT22;2619;47.868;11.892;2022-09-09T10:10:27;14.80;99.90
5200;DHT22;2619;47.868;11.892;2022-09-09T10:13:05;14.90;99.90
5200;DHT22;2619;47.868;11.892;2022-09-09T10:15:52;14.90;99.90
5200;DHT22;2619;47.868;11.892;2022-09-09T10:21:27;15.10;99.90
5200;DHT22;2619;47.868;11.892;2022-09-09T10:29:29;15.30;99.90
5200;DHT22;2619;47.868;11.892;2022-09-09T10:32:17;15.40;99.90
5200;DHT22;2619;47.868;11.892;2022-09-09T10:40:34;15.40;99.90
5200;DHT22;2619;47.868;11.892;2022-09-09T10:51:47;15.30;99.90
5200;DHT22;2619;47.868;11.892;2022-09-09T10:56:54;15.20;99.90
5200;DHT22;2619;47.868;11.892;2022-09-09T10:59:24;15.20;99.90
5200;DHT22;2619;47.868;11.892;2022-09-09T11:02:03;15.30;99.90
5200;DHT22;2619;47.868;11.892;2022-09-09T11:07:06;15.30;99.90
5200;DHT22;2619;47.868;11.892;2022-09-09T11:09:39;15.40;99.90
5200;DHT22;2619;47.868;11.892;2022-09-09T11:12:10;15.40;99.90
5200;DHT22;2619;47.868;11.892;2022-09-09T11:17:23;15.80;99.90
5200;DHT22;2619;47.868;11.892;2022-09-09T11:19:49;15.90;99.90
5200;DHT22;2619;47.868;11.892;2022-09-09T11:24:56;16.10;99.90
5200;DHT22;2619;47.868;11.892;2022-09-09T11:27:40;16.10;99.90
5200;DHT22;2619;47.868;11.892;2022-09-09T11:38:26;16.10;99.90
5200;DHT22;2619;47.868;11.892;2022-09-09T11:41:04;16.10;99.90
5200;DHT22;2619;47.868;11.892;2022-09-09T11:43:52;16.30;99.90
5200;DHT22;2619;47.868;11.892;2022-09-09T11:46:20;16.40;99.90
5200;DHT22;2619;47.868;11.892;2022-09-09T11:49:05;16.60;99.90
5200;DHT22;2619;47.868;11.892;2022-09-09T11:51:32;16.80;99.90
5200;DHT22;2619;47.868;11.892;2022-09-09T11:56:47;17.00;99.90
5200;DHT22;2619;47.868;11.892;2022-09-09T11:59:25;17.20;99.90
5200;DHT22;2619;47.868;11.892;2022-09-09T12:02:01;17.60;99.90
5200;DHT22;2619;47.868;11.892;2022-09-09T12:09:52;18.40;99.90
5200;DHT22;2619;47.868;11.892;2022-09-09T12:12:25;18.30;99.90
5200;DHT22;2619;47.868;11.892;2022-09-09T12:17:24;18.90;99.90
5200;DHT22;2619;47.868;11.892;2022-09-09T12:28:19;20.00;99.90
5200;DHT22;2619;47.868;11.892;2022-09-09T12:33:44;20.40;99.90
5200;DHT22;2619;47.868;11.892;2022-09-09T12:36:24;20.80;99.90
5200;DHT22;2619;47.868;11.892;2022-09-09T12:38:53;21.00;99.90
5200;DHT22;2619;47.868;11.892;2022-09-09T12:41:22;21.20;99.90
5200;DHT22;2619;47.868;11.892;2022-09-09T12:43:48;21.40;99.90
5200;DHT22;2619;47.868;11.892;2022-09-09T12:46:31;21.30;99.90
5200;DHT22;2619;47.868;11.892;2022-09-09T12:48:59;21.10;99.90
5200;DHT22;2619;47.868;11.892;2022-09-09T12:51:30;20.80;99.90
5200;DHT22;2619;47.868;11.892;2022-09-09T12:53:57;20.80;99.90
5200;DHT22;2619;47.868;11.892;2022-09-09T12:56:29;20.70;99.90
5200;DHT22;2619;47.868;11.892;2022-09-09T12:58:57;20.60;99.90
5200;DHT22;2619;47.868;11.892;2022-09-09T13:01:31;20.40;99.90
5200;DHT22;2619;47.868;11.892;2022-09-09T13:03:58;20.20;99.90
5200;DHT22;2619;47.868;11.892;2022-09-09T13:06:29;20.10;99.90
5200;DHT22;2619;47.868;11.892;2022-09-09T13:08:57;19.90;99.90
5200;DHT22;2619;47.868;11.892;2022-09-09T13:11:37;19.80;99.90
5200;DHT22;2619;47.868;11.892;2022-09-09T13:14:05;19.80;99.90
5200;DHT22;2619;47.868;11.892;2022-09-09T13:16:34;19.70;99.90
5200;DHT22;2619;47.868;11.892;2022-09-09T13:19:02;19.50;99.90
5200;DHT22;2619;47.868;11.892;2022-09-09T13:21:37;19.60;99.90
5200;DHT22;2619;47.868;11.892;2022-09-09T13:27:04;19.20;99.90
5200;DHT22;2619;47.868;11.892;2022-09-09T13:29:31;18.90;99.90
5200;DHT22;2619;47.868;11.892;2022-09-09T13:32:05;18.90;99.90
5200;DHT22;2619;47.868;11.892;2022-09-09T13:34:34;19.20;99.90
5200;DHT22;2619;47.868;11.892;2022-09-09T13:37:14;18.80;99.90
5200;DHT22;2619;47.868;11.892;2022-09-09T13:39:51;18.90;99.90
5200;DHT22;2619;47.868;11.892;2022-09-09T13:42:27;19.10;99.90
5200;DHT22;2619;47.868;11.892;2022-09-09T13:44:53;19.00;99.90
5200;DHT22;2619;47.868;11.892;2022-09-09T13:47:26;19.20;99.90
5200;DHT22;2619;47.868;11.892;2022-09-09T13:49:53;19.10;99.90
5200;DHT22;2619;47.868;11.892;2022-09-09T13:52:19;19.50;99.90
5200;DHT22;2619;47.868;11.892;2022-09-09T13:54:52;19.80;99.90
5200;DHT22;2619;47.868;11.892;2022-09-09T13:57:21;20.10;99.90
5200;DHT22;2619;47.868;11.892;2022-09-09T13:59:48;20.30;99.90
5200;DHT22;2619;47.868;11.892;2022-09-09T14:02:15;20.50;99.90
5200;DHT22;2619;47.868;11.892;2022-09-09T14:04:42;20.70;99.90
5200;DHT22;2619;47.868;11.892;2022-09-09T14:07:13;20.60;99.90
5200;DHT22;2619;47.868;11.892;2022-09-09T14:09:39;20.70;99.90
5200;DHT22;2619;47.868;11.892;2022-09-09T14:12:08;20.70;99.90
5200;DHT22;2619;47.868;11.892;2022-09-09T14:14:34;20.70;99.90
5200;DHT22;2619;47.868;11.892;2022-09-09T14:17:00;20.50;99.90
5200;DHT22;2619;47.868;11.892;2022-09-09T14:19:26;20.30;99.90
5200;DHT22;2619;47.868;11.892;2022-09-09T14:21:51;20.30;99.90
5200;DHT22;2619;47.868;11.892;2022-09-09T14:24:17;20.10;99.90
5200;DHT22;2619;47.868;11.892;2022-09-09T14:26:43;20.00;99.90
5200;DHT22;2619;47.868;11.892;2022-09-09T14:29:08;19.90;99.90
5200;DHT22;2619;47.868;11.892;2022-09-09T14:31:34;19.90;99.90
5200;DHT22;2619;47.868;11.892;2022-09-09T14:33:59;19.80;99.90
5200;DHT22;2619;47.868;11.892;2022-09-09T14:36:25;20.10;99.90
5200;DHT22;2619;47.868;11.892;2022-09-09T14:38:51;20.00;99.90
5200;DHT22;2619;47.868;11.892;2022-09-09T14:41:18;19.90;99.90
5200;DHT22;2619;47.868;11.892;2022-09-09T14:43:45;19.90;99.90
5200;DHT22;2619;47.868;11.892;2022-09-09T14:46:13;19.60;99.90
5200;DHT22;2619;47.868;11.892;2022-09-09T14:48:39;19.40;99.90
5200;DHT22;2619;47.868;11.892;2022-09-09T14:51:11;19.10;99.90
5200;DHT22;2619;47.868;11.892;2022-09-09T14:53:38;19.00;99.90
5200;DHT22;2619;47.868;11.892;2022-09-09T14:56:16;19.10;99.90
5200;DHT22;2619;47.868;11.892;2022-09-09T14:58:43;19.20;99.90
5200;DHT22;2619;47.868;11.892;2022-09-09T15:01:16;19.30;99.90
5200;DHT22;2619;47.868;11.892;2022-09-09T15:03:48;19.50;99.90
5200;DHT22;2619;47.868;11.892;2022-09-09T15:06:14;19.60;99.90
5200;DHT22;2619;47.868;11.892;2022-09-09T15:08:42;19.80;99.90
5200;DHT22;2619;47.868;11.892;2022-09-09T15:11:09;20.00;99.90
5200;DHT22;2619;47.868;11.892;2022-09-09T15:13:36;20.20;99.90
5200;DHT22;2619;47.868;11.892;2022-09-09T15:16:10;20.30;99.90
5200;DHT22;2619;47.868;11.892;2022-09-09T15:18:37;20.50;99.90
5200;DHT22;2619;47.868;11.892;2022-09-09T15:21:05;20.40;99.90
5200;DHT22;2619;47.868;11.892;2022-09-09T15:23:32;20.50;99.90
5200;DHT22;2619;47.868;11.892;2022-09-09T15:25:58;20.70;99.90
5200;DHT22;2619;47.868;11.892;2022-09-09T15:28:24;20.90;99.90
5200;DHT22;2619;47.868;11.892;2022-09-09T15:30:50;20.90;99.90
5200;DHT22;2619;47.868;11.892;2022-09-09T15:33:17;21.00;99.90
5200;DHT22;2619;47.868;11.892;2022-09-09T15:35:43;20.90;99.90
5200;DHT22;2619;47.868;11.892;2022-09-09T15:38:09;20.70;99.90
5200;DHT22;2619;47.868;11.892;2022-09-09T15:40:35;20.70;99.90
5200;DHT22;2619;47.868;11.892;2022-09-09T15:43:00;20.50;99.90
5200;DHT22;2619;47.868;11.892;2022-09-09T15:45:27;20.40;99.90
5200;DHT22;2619;47.868;11.892;2022-09-09T15:47:53;20.10;99.90
5200;DHT22;2619;47.868;11.892;2022-09-09T15:50:18;19.80;99.90
5200;DHT22;2619;47.868;11.892;2022-09-09T15:52:44;19.60;99.90
5200;DHT22;2619;47.868;11.892;2022-09-09T15:55:10;19.40;99.90
5200;DHT22;2619;47.868;11.892;2022-09-09T15:57:35;19.20;99.90
5200;DHT22;2619;47.868;11.892;2022-09-09T16:00:05;19.10;99.90
5200;DHT22;2619;47.868;11.892;2022-09-09T16:02:32;18.90;99.90
5200;DHT22;2619;47.868;11.892;2022-09-09T16:04:58;18.70;99.90
5200;DHT22;2619;47.868;11.892;2022-09-09T16:07:23;18.60;99.90
5200;DHT22;2619;47.868;11.892;2022-09-09T16:09:49;18.40;99.90
5200;DHT22;2619;47.868;11.892;2022-09-09T16:12:18;18.30;99.90
5200;DHT22;2619;47.868;11.892;2022-09-09T16:14:44;18.20;99.90
5200;DHT22;2619;47.868;11.892;2022-09-09T16:17:10;18.00;99.90
5200;DHT22;2619;47.868;11.892;2022-09-09T16:19:37;17.80;99.90
5200;DHT22;2619;47.868;11.892;2022-09-09T16:22:03;17.80;99.90
5200;DHT22;2619;47.868;11.892;2022-09-09T16:24:29;17.70;99.90
5200;DHT22;2619;47.868;11.892;2022-09-09T16:26:55;17.50;99.90
5200;DHT22;2619;47.868;11.892;2022-09-09T16:29:21;17.30;99.90
5200;DHT22;2619;47.868;11.892;2022-09-09T16:31:48;17.00;99.90
5200;DHT22;2619;47.868;11.892;2022-09-09T16:34:15;16.80;99.90
5200;DHT22;2619;47.868;11.892;2022-09-09T16:36:42;16.70;99.90
5200;DHT22;2619;47.868;11.892;2022-09-09T16:39:11;16.60;99.90
5200;DHT22;2619;47.868;11.892;2022-09-09T16:41:38;16.50;99.90
5200;DHT22;2619;47.868;11.892;2022-09-09T16:44:06;16.40;99.90
5200;DHT22;2619;47.868;11.892;2022-09-09T16:46:34;16.30;99.90
5200;DHT22;2619;47.868;11.892;2022-09-09T16:49:02;16.30;99.90
5200;DHT22;2619;47.868;11.892;2022-09-09T16:51:36;16.30;99.90
5200;DHT22;2619;47.868;11.892;2022-09-09T16:54:04;16.20;99.90
5200;DHT22;2619;47.868;11.892;2022-09-09T16:56:33;16.10;99.90
5200;DHT22;2619;47.868;11.892;2022-09-09T16:59:01;16.00;99.90
5200;DHT22;2619;47.868;11.892;2022-09-09T17:01:29;16.00;99.90
5200;DHT22;2619;47.868;11.892;2022-09-09T17:03:58;15.90;99.90
5200;DHT22;2619;47.868;11.892;2022-09-09T17:06:24;15.70;99.90
5200;DHT22;2619;47.868;11.892;2022-09-09T17:08:54;15.70;99.90
5200;DHT22;2619;47.868;11.892;2022-09-09T17:11:20;15.60;99.90
5200;DHT22;2619;47.868;11.892;2022-09-09T17:13:46;15.60;99.90
5200;DHT22;2619;47.868;11.892;2022-09-09T17:16:14;15.50;99.90
5200;DHT22;2619;47.868;11.892;2022-09-09T17:18:41;15.40;99.90
5200;DHT22;2619;47.868;11.892;2022-09-09T17:21:11;15.40;99.90
5200;DHT22;2619;47.868;11.892;2022-09-09T17:23:40;15.30;99.90
5200;DHT22;2619;47.868;11.892;2022-09-09T17:26:07;15.30;99.90
5200;DHT22;2619;47.868;11.892;2022-09-09T17:28:37;15.30;99.90
5200;DHT22;2619;47.868;11.892;2022-09-09T17:31:05;15.20;99.90
5200;DHT22;2619;47.868;11.892;2022-09-09T17:33:33;15.20;99.90
5200;DHT22;2619;47.868;11.892;2022-09-09T17:36:02;15.00;99.90
5200;DHT22;2619;47.868;11.892;2022-09-09T17:38:28;14.90;99.90
5200;DHT22;2619;47.868;11.892;2022-09-09T17:41:08;14.70;99.90
5200;DHT22;2619;47.868;11.892;2022-09-09T17:43:35;14.60;99.90
5200;DHT22;2619;47.868;11.892;2022-09-09T17:48:32;14.50;99.90
5200;DHT22;2619;47.868;11.892;2022-09-09T17:50:59;14.40;99.90
5200;DHT22;2619;47.868;11.892;2022-09-09T17:53:24;14.40;99.90
5200;DHT22;2619;47.868;11.892;2022-09-09T17:55:51;14.30;99.90
5200;DHT22;2619;47.868;11.892;2022-09-09T17:58:16;14.20;99.90
5200;DHT22;2619;47.868;11.892;2022-09-09T18:00:42;14.20;99.90
5200;DHT22;2619;47.868;11.892;2022-09-09T18:03:07;14.30;99.90
5200;DHT22;2619;47.868;11.892;2022-09-09T18:05:34;14.20;99.90
5200;DHT22;2619;47.868;11.892;2022-09-09T18:07:59;14.10;99.90
5200;DHT22;2619;47.868;11.892;2022-09-09T18:10:25;14.00;99.90
5200;DHT22;2619;47.868;11.892;2022-09-09T18:12:50;13.90;99.90
5200;DHT22;2619;47.868;11.892;2022-09-09T18:15:17;13.90;99.90
5200;DHT22;2619;47.868;11.892;2022-09-09T18:17:42;13.90;99.90
5200;DHT22;2619;47.868;11.892;2022-09-09T18:20:08;13.80;99.90